createdAt,value
2022-09-26T00:00:21.775Z,100428.47
2022-09-26T00:07:55.399Z,100413.31
2022-09-26T00:15:30.443Z,100410.63
2022-09-26T00:23:03.927Z,100403.44
2022-09-26T00:30:39.012Z,100402.56
2022-09-26T00:38:12.744Z,100405.25
2022-09-26T00:45:47.832Z,100402.56
2022-09-26T00:53:26.702Z,100400.75
2022-09-26T01:01:02.366Z,100393.63
2022-09-26T01:08:40.094Z,100389.16
2022-09-26T01:16:15.243Z,100368.59
2022-09-26T01:24:20.008Z,100375.78
2022-09-26T01:32:23.015Z,100349.84
2022-09-26T01:40:08.926Z,100341.81
2022-09-26T01:47:49.569Z,100341.81
2022-09-26T01:55:28.721Z,100340.94
2022-09-26T02:03:07.559Z,100340.03
2022-09-26T02:10:47.551Z,100326.63
2022-09-26T02:18:27.690Z,100322.19
2022-09-26T02:26:01.497Z,100318.59
2022-09-26T02:33:37.180Z,100310.56
2022-09-26T02:41:17.910Z,100295.38
2022-09-26T02:49:09.470Z,100297.16
2022-09-26T02:56:55.403Z,100267.69
2022-09-26T03:04:42.780Z,100273.06
2022-09-26T03:12:17.043Z,100268.59
2022-09-26T03:19:59.211Z,100273.97
2022-09-26T03:27:34.670Z,100274.81
2022-09-26T03:35:11.387Z,100269.47
2022-09-26T03:42:46.786Z,100258.78
2022-09-26T03:50:21.791Z,100253.44
2022-09-26T03:57:55.292Z,100253.44
2022-09-26T04:05:30.997Z,100232.88
2022-09-26T04:13:04.741Z,100223.06
2022-09-26T04:20:39.781Z,100223.97
2022-09-26T04:28:13.251Z,100223.97
2022-09-26T04:35:48.273Z,100215.94
2022-09-26T04:43:21.806Z,100232.91
2022-09-26T04:50:56.915Z,100225.75
2022-09-26T04:58:30.557Z,100219.50
2022-09-26T05:06:09.052Z,100215.00
2022-09-26T05:13:43.771Z,100216.81
2022-09-26T05:21:18.919Z,100217.69
2022-09-26T05:28:54.130Z,100206.06
2022-09-26T05:36:29.342Z,100219.41
2022-09-26T05:44:03.581Z,100206.03
2022-09-26T05:51:41.303Z,100201.59
2022-09-26T05:59:15.033Z,100205.13
2022-09-26T06:06:51.281Z,100201.59
2022-09-26T06:14:26.230Z,100199.81
2022-09-26T06:22:01.273Z,100195.34
2022-09-26T06:29:34.795Z,100182.94
2022-09-26T06:37:09.833Z,100176.69
2022-09-26T06:44:43.295Z,100169.53
2022-09-26T06:52:18.343Z,100171.34
2022-09-26T06:59:51.998Z,100160.59
2022-09-26T07:07:27.156Z,100163.25
2022-09-26T07:15:01.163Z,100158.81
2022-09-26T07:22:36.691Z,100158.78
2022-09-26T07:30:11.315Z,100150.69
2022-09-26T07:37:46.442Z,100147.94
2022-09-26T07:45:40.701Z,100142.44
2022-09-26T07:53:15.687Z,100140.34
2022-09-26T08:00:49.359Z,100134.81
2022-09-26T08:08:25.048Z,100130.03
2022-09-26T08:16:04.421Z,100131.38
2022-09-26T08:23:39.532Z,100129.22
2022-09-26T08:31:13.444Z,100127.28
2022-09-26T08:38:50.841Z,100129.63
2022-09-26T08:46:49.981Z,100126.38
2022-09-26T08:54:34.885Z,100117.53
2022-09-26T09:02:17.709Z,100107.94
2022-09-26T09:09:55.208Z,100097.13
2022-09-26T09:17:38.514Z,100082.31
2022-09-26T09:25:19.196Z,100082.97
2022-09-26T09:32:56.927Z,100072.94
2022-09-26T09:40:38.395Z,100062.59
2022-09-26T09:48:13.574Z,100056.41
2022-09-26T09:55:54.289Z,100042.59
2022-09-26T10:03:38.161Z,100034.16
2022-09-26T10:11:23.195Z,100035.41
2022-09-26T10:19:03.719Z,100022.25
2022-09-26T10:26:39.650Z,100014.47
2022-09-26T10:34:24.838Z,99997.47
2022-09-26T10:42:01.907Z,100002.91
2022-09-26T10:49:41.461Z,99999.56
2022-09-26T10:57:28.136Z,99994.38
2022-09-26T11:05:23.078Z,99992.72
2022-09-26T11:13:02.335Z,99973.75
2022-09-26T11:20:51.483Z,99961.91
2022-09-26T11:28:32.604Z,99956.19
2022-09-26T11:36:25.349Z,99938.97
2022-09-26T11:44:17.842Z,99944.22
2022-09-26T11:52:04.363Z,99936.31
2022-09-26T11:59:57.998Z,99928.13
2022-09-26T12:07:39.249Z,99915.31
2022-09-26T12:15:23.846Z,99895.31
2022-09-26T12:23:07.524Z,99881.91
2022-09-26T12:30:49.814Z,99879.38
2022-09-26T12:38:39.427Z,99881.03
2022-09-26T12:46:43.611Z,99861.03
2022-09-26T12:54:28.799Z,99859.25
2022-09-26T13:02:23.630Z,99841.41
2022-09-26T13:10:27.916Z,99834.16
2022-09-26T13:18:09.002Z,99834.94
2022-09-26T13:25:49.927Z,99822.19
2022-09-26T13:33:32.963Z,99819.47
2022-09-26T13:41:20.584Z,99807.69
2022-09-26T13:49:03.655Z,99794.34
2022-09-26T13:56:49.893Z,99787.25
2022-09-26T14:04:33.887Z,99767.94
2022-09-26T14:12:52.441Z,99766.31
2022-09-26T14:20:31.567Z,99750.47
2022-09-26T14:28:17.215Z,99752.47
2022-09-26T14:35:52.223Z,99746.59
2022-09-26T14:43:30.142Z,99738.66
2022-09-26T14:51:20.729Z,99734.16
2022-09-26T14:58:55.855Z,99728.84
2022-09-26T15:06:31.551Z,99721.78
2022-09-26T15:14:18.142Z,99714.69
2022-09-26T15:21:59.160Z,99705.84
2022-09-26T15:29:32.952Z,99710.31
2022-09-26T15:37:18.619Z,99690.44
2022-09-26T15:44:57.143Z,99684.22
2022-09-26T15:52:35.324Z,99676.22
2022-09-26T16:00:14.916Z,99672.09
2022-09-26T16:07:53.001Z,99672.34
2022-09-26T16:15:30.373Z,99658.19
2022-09-26T16:23:06.236Z,99660.38
2022-09-26T16:30:42.812Z,99646.28
2022-09-26T16:38:24.586Z,99644.81
2022-09-26T16:46:07.401Z,99642.38
2022-09-26T16:53:45.402Z,99639.88
2022-09-26T17:01:37.723Z,99636.69
2022-09-26T17:09:17.539Z,99640.56
2022-09-26T17:16:55.160Z,99628.34
2022-09-26T17:24:35.302Z,99634.81
2022-09-26T17:32:16.911Z,99619.88
2022-09-26T17:39:52.304Z,99621.03
2022-09-26T17:47:26.703Z,99613.19
2022-09-26T17:55:05.951Z,99615.16
2022-09-26T18:02:44.466Z,99615.31
2022-09-26T18:10:23.145Z,99603.91
2022-09-26T18:17:57.721Z,99606.69
2022-09-26T18:25:37.521Z,99597.00
2022-09-26T18:33:13.137Z,99605.19
2022-09-26T18:40:52.248Z,99601.53
2022-09-26T18:48:29.057Z,99598.09
2022-09-26T18:56:22.239Z,99595.53
2022-09-26T19:03:58.768Z,99601.81
2022-09-26T19:11:35.240Z,99586.72
2022-09-26T19:19:09.100Z,99581.31
2022-09-26T19:26:45.040Z,99577.75
2022-09-26T19:34:20.375Z,99571.53
2022-09-26T19:41:55.583Z,99560.88
2022-09-26T19:49:31.975Z,99556.41
2022-09-26T19:57:14.916Z,99552.94
2022-09-26T20:04:49.294Z,99553.03
2022-09-26T20:12:24.570Z,99546.81
2022-09-26T20:19:59.197Z,99528.97
2022-09-26T20:27:34.560Z,99523.63
2022-09-26T20:35:10.799Z,99522.84
2022-09-26T20:42:48.999Z,99514.69
2022-09-26T20:50:23.261Z,99504.88
2022-09-26T20:57:59.521Z,99503.16
2022-09-26T21:05:33.930Z,99490.66
2022-09-26T21:13:10.076Z,99479.00
2022-09-26T21:20:43.816Z,99474.56
2022-09-26T21:28:26.236Z,99471.97
2022-09-26T21:36:00.330Z,99467.63
2022-09-26T21:43:40.130Z,99449.75
2022-09-26T21:51:13.981Z,99445.41
2022-09-26T21:58:50.518Z,99441.91
2022-09-26T22:06:24.219Z,99429.47
2022-09-26T22:13:59.439Z,99417.84
2022-09-26T22:21:33.471Z,99394.63
2022-09-26T22:29:08.583Z,99381.28
2022-09-26T22:36:42.399Z,99372.41
2022-09-26T22:44:17.557Z,99375.09
2022-09-26T22:51:51.350Z,99361.69
2022-09-26T22:59:26.517Z,99351.94
2022-09-26T23:07:00.290Z,99340.41
2022-09-26T23:14:35.567Z,99329.69
2022-09-26T23:22:09.374Z,99307.38
2022-09-26T23:29:44.457Z,99297.59
2022-09-26T23:37:18.015Z,99284.31
2022-09-26T23:44:53.170Z,99273.59
2022-09-26T23:52:26.896Z,99266.47
